Time;durP1;ratioP1;P1;durP2;ratioP2;P2;SDS_P1;SDS_P2;PMS_P1;PMS_P2;Temp;Humidity;BMP_temperature;BMP_pressure;BME280_temperature;BME280_humidity;BME280_pressure;Samples;Min_cycle;Max_cycle;Signal;HPM_P1;HPM_P2
2023/12/26 00:00:41;;;;;;;72.78;32.35;;;;;;;23.25;100.00;56616.03;5053609;28;20210;-74
2023/12/26 00:03:07;;;;;;;57.58;31.10;;;;;;;23.25;100.00;56616.03;5048777;28;20250;-75
2023/12/26 00:05:34;;;;;;;70.05;33.92;;;;;;;;;;5053941;28;20227;-74
2023/12/26 00:08:02;;;;;;;65.53;31.80;;;;;;;;;;5061786;28;20363;-74
2023/12/26 00:10:29;;;;;;;63.38;32.47;;;;;;;23.25;100.00;56616.03;5058465;28;20241;-77
2023/12/26 00:12:59;;;;;;;58.83;27.83;;;;;;;-142.91;100.00;56616.03;5061974;28;20198;-75
2023/12/26 00:15:26;;;;;;;66.63;33.70;;;;;;;23.25;100.00;56616.03;5059867;28;20199;-75
2023/12/26 00:17:52;;;;;;;65.78;31.83;;;;;;;;;;5036567;28;20288;-74
2023/12/26 00:20:19;;;;;;;68.13;29.88;;;;;;;-142.91;100.00;56616.03;5061060;28;20265;-74
2023/12/26 00:22:46;;;;;;;78.35;32.30;;;;;;;23.25;100.00;56616.03;5058789;28;20265;-73
2023/12/26 00:25:13;;;;;;;67.95;30.05;;;;;;;;;;5059649;28;20201;-74
2023/12/26 00:27:41;;;;;;;68.03;31.73;;;;;;;23.25;100.00;56616.03;5055369;28;20203;-74
2023/12/26 00:30:09;;;;;;;85.07;31.50;;;;;;;23.26;100.00;56616.03;5054807;28;20282;-74
2023/12/26 00:32:36;;;;;;;62.30;29.98;;;;;;;23.25;100.00;56616.03;5054997;28;20226;-75
2023/12/26 00:35:03;;;;;;;61.88;29.35;;;;;;;-142.91;100.00;56616.03;5046792;28;20277;-74
2023/12/26 00:37:31;;;;;;;62.95;28.85;;;;;;;;;;5057899;28;20768;-74
2023/12/26 00:39:58;;;;;;;59.00;28.35;;;;;;;23.25;100.00;56616.03;5052025;28;20794;-75
2023/12/26 00:42:25;;;;;;;50.45;26.50;;;;;;;-142.91;100.00;56616.03;5036865;28;20287;-74
2023/12/26 00:44:51;;;;;;;52.10;24.67;;;;;;;23.27;100.00;56616.03;5053995;28;20199;-74
2023/12/26 00:47:19;;;;;;;51.28;25.13;;;;;;;23.26;100.00;56616.03;5059819;28;20234;-74
2023/12/26 00:49:46;;;;;;;42.97;22.88;;;;;;;23.25;100.00;56616.03;5059639;28;20204;-74
2023/12/26 00:52:13;;;;;;;46.13;22.80;;;;;;;23.25;100.00;56616.03;5050756;28;20255;-74
2023/12/26 00:54:39;;;;;;;45.15;24.77;;;;;;;-142.91;100.00;56616.03;5058549;28;20202;-75
2023/12/26 00:57:06;;;;;;;53.08;25.95;;;;;;;-142.91;100.00;56616.03;5058142;28;20299;-75
2023/12/26 00:59:33;;;;;;;47.45;26.95;;;;;;;23.26;100.00;56616.03;5059623;28;20257;-75
2023/12/26 01:02:01;;;;;;;49.78;24.55;;;;;;;-142.91;100.00;56616.03;5052869;28;20359;-74
2023/12/26 01:04:30;;;;;;;45.42;24.20;;;;;;;-142.91;100.00;56616.03;5046454;28;20257;-76
2023/12/26 01:06:56;;;;;;;45.42;23.30;;;;;;;-142.91;100.00;56616.03;5045890;28;20608;-75
2023/12/26 01:09:23;;;;;;;45.80;23.50;;;;;;;23.25;100.00;56616.03;5048470;28;20509;-74
2023/12/26 01:11:49;;;;;;;53.20;25.00;;;;;;;;;;5056027;28;20291;-74
2023/12/26 01:14:16;;;;;;;52.42;23.60;;;;;;;;;;5050774;28;21900;-74
2023/12/26 01:16:45;;;;;;;51.25;24.30;;;;;;;-142.91;100.00;56616.03;5047227;28;20207;-75
2023/12/26 01:19:12;;;;;;;45.70;23.38;;;;;;;23.25;100.00;56616.03;5050063;28;20222;-75
2023/12/26 01:21:40;;;;;;;54.17;28.42;;;;;;;23.25;100.00;56616.03;5051045;28;20207;-74
2023/12/26 01:24:07;;;;;;;51.05;24.35;;;;;;;-142.91;100.00;56616.03;5049652;28;20206;-75
2023/12/26 01:26:34;;;;;;;53.42;25.92;;;;;;;23.25;100.00;56616.03;5048526;28;20300;-76
2023/12/26 01:29:02;;;;;;;52.17;26.98;;;;;;;-142.91;100.00;56616.03;5046625;28;20195;-74
2023/12/26 01:31:29;;;;;;;64.10;27.67;;;;;;;23.25;100.00;56616.03;5052024;28;20207;-75
2023/12/26 01:33:56;;;;;;;52.55;24.63;;;;;;;-142.91;100.00;56616.03;5050546;28;20195;-74
2023/12/26 01:36:22;;;;;;;49.70;23.80;;;;;;;-142.91;100.00;56616.03;5046040;28;20230;-75
2023/12/26 01:38:50;;;;;;;44.28;23.10;;;;;;;23.26;100.00;56616.03;5045390;28;20665;-75
2023/12/26 01:41:16;;;;;;;46.75;24.23;;;;;;;;;;5047328;28;20774;-75
2023/12/26 01:43:43;;;;;;;41.58;22.20;;;;;;;-142.91;100.00;56616.03;5053121;28;20238;-75
2023/12/26 01:46:10;;;;;;;42.70;21.70;;;;;;;-142.91;100.00;56616.03;5045614;28;20207;-76
2023/12/26 01:48:37;;;;;;;43.22;21.67;;;;;;;-142.91;100.00;56616.03;5031091;28;20321;-76
2023/12/26 01:51:04;;;;;;;50.65;21.60;;;;;;;23.25;100.00;56616.03;5042011;28;20246;-74
2023/12/26 01:53:33;;;;;;;44.90;21.75;;;;;;;-142.91;100.00;56616.03;5045941;28;20227;-74
2023/12/26 01:56:01;;;;;;;40.17;21.23;;;;;;;;;;5031975;28;20581;-74
2023/12/26 01:58:28;;;;;;;39.15;19.73;;;;;;;-142.91;100.00;56616.03;5041958;28;20612;-74
2023/12/26 02:00:55;;;;;;;43.95;20.73;;;;;;;-142.91;100.00;56616.03;5044988;28;20338;-74
2023/12/26 02:03:22;;;;;;;42.90;19.67;;;;;;;-142.91;100.00;56616.03;5049461;28;20276;-74
2023/12/26 02:05:48;;;;;;;38.20;18.75;;;;;;;-142.91;100.00;56616.03;5050829;28;20296;-74
2023/12/26 02:08:15;;;;;;;45.72;20.77;;;;;;;-142.91;100.00;56616.03;5052463;28;20235;-74
2023/12/26 02:10:42;;;;;;;35.05;20.08;;;;;;;-142.91;100.00;56616.03;5045423;28;20280;-75
2023/12/26 02:13:10;;;;;;;41.22;20.02;;;;;;;-142.91;100.00;56616.03;5036761;28;20229;-75
2023/12/26 02:15:37;;;;;;;39.38;19.65;;;;;;;23.25;100.00;56616.03;5055303;28;20750;-75
2023/12/26 02:18:04;;;;;;;37.28;18.90;;;;;;;-142.91;100.00;56616.03;5045962;28;20670;-76
2023/12/26 02:20:31;;;;;;;33.38;17.45;;;;;;;;;;5044699;28;20245;-75
2023/12/26 02:22:57;;;;;;;40.53;18.50;;;;;;;-142.91;100.00;56616.03;5053679;28;20198;-75
2023/12/26 02:25:27;;;;;;;45.05;20.95;;;;;;;-142.91;100.00;56616.03;5033177;28;20298;-75
2023/12/26 02:27:54;;;;;;;32.83;18.13;;;;;;;23.25;100.00;56616.03;5047177;28;20490;-74
2023/12/26 02:30:22;;;;;;;34.55;18.85;;;;;;;-142.91;100.00;56616.03;5047591;28;20588;-74
2023/12/26 02:32:51;;;;;;;38.08;19.48;;;;;;;-142.91;100.00;56616.03;5046127;28;20254;-75
2023/12/26 02:35:18;;;;;;;38.50;17.95;;;;;;;;;;5037650;28;20579;-77
2023/12/26 02:37:49;;;;;;;48.17;19.42;;;;;;;-142.91;100.00;56616.03;5033203;28;20325;-76
2023/12/26 02:40:16;;;;;;;38.25;17.73;;;;;;;-142.91;100.00;56616.03;5033355;28;20253;-74
2023/12/26 02:42:44;;;;;;;34.30;17.90;;;;;;;-142.91;100.00;56616.03;5047446;28;20207;-74
2023/12/26 02:45:11;;;;;;;48.72;18.17;;;;;;;-142.91;100.00;56616.03;5043741;28;20261;-74
2023/12/26 02:47:38;;;;;;;36.83;18.60;;;;;;;-142.91;100.00;56616.03;5047490;28;20248;-77
2023/12/26 02:50:06;;;;;;;35.83;18.55;;;;;;;-142.91;100.00;56616.03;5044694;28;20207;-75
2023/12/26 02:52:33;;;;;;;41.55;18.67;;;;;;;-142.91;100.00;56616.03;5045800;28;20327;-74
2023/12/26 02:55:00;;;;;;;41.45;19.27;;;;;;;-142.91;100.00;56616.03;5021444;28;20226;-75
2023/12/26 02:57:28;;;;;;;35.53;17.27;;;;;;;23.25;100.00;56616.03;5022346;28;20218;-77
2023/12/26 02:59:56;;;;;;;35.72;19.20;;;;;;;23.41;100.00;56616.03;5041002;28;20219;-75
2023/12/26 03:02:23;;;;;;;38.00;18.30;;;;;;;-142.91;100.00;56616.03;5048270;28;20235;-76
2023/12/26 03:04:49;;;;;;;35.75;19.05;;;;;;;-142.91;100.00;56616.03;5038691;28;20207;-75
2023/12/26 03:07:16;;;;;;;45.40;18.25;;;;;;;-142.91;100.00;56616.03;5044101;28;20218;-74
2023/12/26 03:09:43;;;;;;;30.77;18.25;;;;;;;-142.91;100.00;56616.03;5045571;28;20676;-74
2023/12/26 03:12:09;;;;;;;33.65;17.88;;;;;;;-142.91;100.00;56616.03;5029210;28;20207;-75
2023/12/26 03:14:36;;;;;;;35.78;18.50;;;;;;;;;;5039212;28;20198;-74
2023/12/26 03:17:04;;;;;;;39.28;20.15;;;;;;;-142.91;100.00;56616.03;5046761;28;20239;-74
2023/12/26 03:19:31;;;;;;;49.22;22.30;;;;;;;-142.91;100.00;56616.03;5036707;28;20207;-75
2023/12/26 03:21:57;;;;;;;37.28;20.73;;;;;;;-142.91;100.00;56616.03;5045436;28;20226;-74
2023/12/26 03:24:24;;;;;;;32.47;19.55;;;;;;;-142.91;100.00;56616.03;5047697;28;20226;-74
2023/12/26 03:26:51;;;;;;;34.72;20.02;;;;;;;-142.91;100.00;56616.03;5047253;28;20664;-75
2023/12/26 03:29:17;;;;;;;46.40;22.42;;;;;;;-142.91;100.00;56616.03;5047722;28;20258;-74
2023/12/26 03:31:45;;;;;;;40.10;21.15;;;;;;;-142.91;100.00;56616.03;5050174;28;20806;-74
2023/12/26 03:34:13;;;;;;;36.80;21.05;;;;;;;-142.91;100.00;56616.03;5051592;28;20221;-76
2023/12/26 03:36:44;;;;;;;51.72;22.42;;;;;;;-142.91;100.00;56616.03;5045424;28;20664;-73
2023/12/26 03:39:10;;;;;;;38.85;20.33;;;;;;;-142.91;100.00;56616.03;5046739;28;20225;-73
2023/12/26 03:41:37;;;;;;;51.85;22.13;;;;;;;-142.91;100.00;56616.03;5045745;28;20250;-72
2023/12/26 03:44:04;;;;;;;41.65;20.75;;;;;;;-142.91;100.00;56616.03;5047067;28;20211;-72
2023/12/26 03:46:31;;;;;;;46.13;21.90;;;;;;;-142.91;100.00;56616.03;5045414;28;20288;-72
2023/12/26 03:48:58;;;;;;;37.90;20.67;;;;;;;-142.91;100.00;56616.03;5047877;28;20704;-72
2023/12/26 03:51:25;;;;;;;48.17;21.98;;;;;;;-142.91;100.00;56616.03;5052763;28;20734;-73
2023/12/26 03:53:52;;;;;;;40.95;21.10;;;;;;;-142.91;100.00;56616.03;5048476;28;20227;-72
2023/12/26 03:56:19;;;;;;;45.00;22.73;;;;;;;-142.91;100.00;56616.03;5048069;28;20231;-72
2023/12/26 03:58:45;;;;;;;47.90;22.95;;;;;;;-142.91;100.00;56616.03;5047343;28;20202;-74
2023/12/26 04:01:12;;;;;;;38.85;20.40;;;;;;;-142.91;100.00;56616.03;5047507;28;20250;-74
2023/12/26 04:03:39;;;;;;;36.13;20.65;;;;;;;-142.91;100.00;56616.03;5050182;28;20243;-73
2023/12/26 04:06:06;;;;;;;39.17;20.52;;;;;;;-142.91;100.00;56616.03;5052055;28;20202;-73
2023/12/26 04:08:34;;;;;;;45.70;22.63;;;;;;;-142.91;100.00;56616.03;5053925;28;20207;-74
2023/12/26 04:11:01;;;;;;;42.08;20.88;;;;;;;-142.91;100.00;56616.03;5047710;28;20227;-72
2023/12/26 04:13:27;;;;;;;40.40;22.38;;;;;;;-142.91;100.00;56616.03;5053730;28;20281;-75
2023/12/26 04:15:54;;;;;;;45.60;22.63;;;;;;;-142.91;100.00;56616.03;5054858;28;20239;-72
2023/12/26 04:18:21;;;;;;;36.83;19.85;;;;;;;-142.91;100.00;56616.03;5046816;28;20199;-72
2023/12/26 04:20:47;;;;;;;45.15;21.08;;;;;;;-142.91;100.00;56616.03;5055847;28;20257;-72
2023/12/26 04:23:14;;;;;;;39.35;21.42;;;;;;;23.25;100.00;56616.03;5049696;28;20268;-74
2023/12/26 04:25:42;;;;;;;39.92;20.83;;;;;;;-142.91;100.00;56616.03;5051205;28;20291;-73
2023/12/26 04:28:09;;;;;;;38.65;21.23;;;;;;;-142.91;100.00;56616.03;5053070;28;20432;-73
2023/12/26 04:30:35;;;;;;;37.70;21.75;;;;;;;-142.91;100.00;56616.03;5039469;28;20592;-72
2023/12/26 04:33:02;;;;;;;34.85;20.77;;;;;;;-142.91;100.00;56616.03;5054760;28;20276;-72
2023/12/26 04:35:29;;;;;;;43.60;21.50;;;;;;;;;;5051810;28;20282;-72
2023/12/26 04:37:55;;;;;;;49.97;23.50;;;;;;;;;;5054052;28;20203;-72
2023/12/26 04:40:22;;;;;;;44.88;22.27;;;;;;;-142.91;100.00;56616.03;5047832;28;20219;-71
2023/12/26 04:42:50;;;;;;;39.40;20.73;;;;;;;-142.91;100.00;56616.03;5050380;28;20222;-72
2023/12/26 04:45:16;;;;;;;41.38;21.63;;;;;;;-142.91;100.00;56616.03;5046334;28;20236;-71
2023/12/26 04:47:43;;;;;;;47.38;23.38;;;;;;;-142.91;100.00;56616.03;5041128;28;20206;-72
2023/12/26 04:50:09;;;;;;;48.17;22.30;;;;;;;;;;5048798;28;20234;-72
2023/12/26 04:52:36;;;;;;;44.10;22.10;;;;;;;-142.91;100.00;56616.03;5046689;28;20704;-72
2023/12/26 04:55:03;;;;;;;40.80;20.88;;;;;;;-142.91;100.00;56616.03;5053596;28;20249;-72
2023/12/26 04:57:30;;;;;;;52.10;22.13;;;;;;;-142.91;100.00;56616.03;5054717;28;20661;-73
2023/12/26 04:59:58;;;;;;;39.15;20.98;;;;;;;-142.91;100.00;56616.03;5057531;28;20195;-71
2023/12/26 05:02:25;;;;;;;47.75;19.85;;;;;;;-142.91;100.00;56616.03;5052058;28;20288;-73
2023/12/26 05:04:52;;;;;;;41.50;20.25;;;;;;;-142.91;100.00;56616.03;5053131;28;20230;-72
2023/12/26 05:07:19;;;;;;;37.72;20.27;;;;;;;-142.91;100.00;56616.03;5050168;28;20196;-73
2023/12/26 05:09:45;;;;;;;38.00;21.33;;;;;;;-142.91;100.00;56616.03;5046698;28;20292;-73
2023/12/26 05:12:12;;;;;;;47.45;20.58;;;;;;;-142.91;100.00;56616.03;5050731;28;20199;-72
2023/12/26 05:14:39;;;;;;;56.05;21.98;;;;;;;-142.91;100.00;56616.03;5053122;28;20672;-73
2023/12/26 05:17:07;;;;;;;35.70;19.20;;;;;;;;;;5046046;28;20292;-72
2023/12/26 05:19:34;;;;;;;37.38;20.05;;;;;;;-142.91;100.00;56616.03;5046386;28;21017;-72
2023/12/26 05:22:01;;;;;;;37.75;18.95;;;;;;;-142.91;100.00;56616.03;5044793;28;20290;-72
2023/12/26 05:24:27;;;;;;;46.13;20.30;;;;;;;-142.91;100.00;56616.03;5045232;28;20284;-72
2023/12/26 05:26:54;;;;;;;38.90;18.13;;;;;;;-142.91;100.00;56616.03;5051882;28;20211;-72
2023/12/26 05:29:20;;;;;;;33.10;19.00;;;;;;;-142.91;100.00;56616.03;5050687;28;20281;-72
2023/12/26 05:31:48;;;;;;;39.53;18.73;;;;;;;-142.91;100.00;56616.03;5046445;28;20231;-72
2023/12/26 05:34:16;;;;;;;46.58;20.17;;;;;;;-142.91;100.00;56616.03;5045566;28;20206;-72
2023/12/26 05:36:43;;;;;;;40.40;19.25;;;;;;;-142.91;100.00;56616.03;5047092;28;20293;-73
2023/12/26 05:39:11;;;;;;;38.70;18.45;;;;;;;-142.91;100.00;56616.03;5045885;28;20234;-73
2023/12/26 05:41:41;;;;;;;37.28;19.67;;;;;;;-142.91;100.00;56616.03;5045381;28;20657;-72
2023/12/26 05:44:07;;;;;;;37.85;18.55;;;;;;;-142.91;100.00;56616.03;5045778;28;20195;-72
2023/12/26 05:46:34;;;;;;;33.95;17.73;;;;;;;-142.91;100.00;56616.03;5046556;28;20235;-72
2023/12/26 05:49:01;;;;;;;35.35;17.50;;;;;;;-142.91;100.00;56616.03;5045919;28;20226;-72
2023/12/26 05:51:29;;;;;;;25.25;14.57;;;;;;;-142.91;100.00;56616.03;5046025;28;20253;-72
2023/12/26 05:53:56;;;;;;;26.58;15.80;;;;;;;-142.91;100.00;56616.03;5046502;28;20199;-73
2023/12/26 05:56:23;;;;;;;27.85;14.15;;;;;;;-142.91;100.00;56616.03;5051080;28;20229;-72
2023/12/26 05:58:50;;;;;;;26.67;13.48;;;;;;;-142.91;100.00;56616.03;5048327;28;20207;-72
2023/12/26 06:01:16;;;;;;;29.08;13.48;;;;;;;-142.91;100.00;56616.03;5051232;28;20254;-73
2023/12/26 06:03:44;;;;;;;28.38;14.18;;;;;;;-142.91;100.00;56616.03;5050330;28;20325;-72
2023/12/26 06:06:11;;;;;;;20.65;12.82;;;;;;;-142.91;100.00;56616.03;5052592;28;20238;-72
2023/12/26 06:08:40;;;;;;;25.10;14.80;;;;;;;-142.91;100.00;56616.03;5046259;28;20740;-73
2023/12/26 06:11:07;;;;;;;24.33;14.35;;;;;;;-142.91;100.00;56616.03;5045148;28;20253;-72
2023/12/26 06:13:34;;;;;;;26.10;13.20;;;;;;;-142.91;100.00;56616.03;5044854;28;20243;-73
2023/12/26 06:16:01;;;;;;;27.42;15.48;;;;;;;-142.91;100.00;56616.03;5047841;28;20199;-72
2023/12/26 06:18:28;;;;;;;24.05;14.65;;;;;;;-142.91;100.00;56616.03;5054662;28;20260;-72
2023/12/26 06:20:54;;;;;;;28.10;15.73;;;;;;;-142.91;100.00;56616.03;5049313;28;20266;-72
2023/12/26 06:23:21;;;;;;;30.30;15.07;;;;;;;-142.91;100.00;56616.03;5051093;28;20230;-74
2023/12/26 06:25:49;;;;;;;34.20;16.60;;;;;;;-142.91;100.00;56616.03;5050732;28;20234;-75
2023/12/26 06:28:15;;;;;;;40.67;19.48;;;;;;;-142.91;100.00;56616.03;5048468;28;20771;-72
2023/12/26 06:30:42;;;;;;;29.75;16.20;;;;;;;-142.91;100.00;56616.03;5046840;28;20218;-74
2023/12/26 06:33:09;;;;;;;34.70;17.88;;;;;;;-142.91;100.00;56616.03;5049809;28;20243;-73
2023/12/26 06:35:35;;;;;;;32.80;17.75;;;;;;;-142.91;100.00;56616.03;5048348;28;20234;-73
2023/12/26 06:38:05;;;;;;;31.10;17.50;;;;;;;-142.91;100.00;56616.03;5049591;28;20239;-73
2023/12/26 06:40:32;;;;;;;30.27;17.38;;;;;;;-142.91;100.00;56616.03;5048353;28;20242;-74
2023/12/26 06:43:00;;;;;;;37.05;18.17;;;;;;;-142.91;100.00;56616.03;5047459;28;20199;-73
2023/12/26 06:45:27;;;;;;;31.00;16.92;;;;;;;-142.91;100.00;56616.03;5047452;28;20289;-73
2023/12/26 06:47:53;;;;;;;59.33;19.73;;;;;;;-142.91;100.00;56616.03;5046793;28;20207;-72
2023/12/26 06:50:20;;;;;;;34.55;17.65;;;;;;;-142.91;100.00;56616.03;5051091;28;20622;-74
2023/12/26 06:52:47;;;;;;;36.55;19.40;;;;;;;-142.91;100.00;56616.03;5052119;28;20684;-74
2023/12/26 06:55:13;;;;;;;37.40;19.60;;;;;;;-142.91;100.00;56616.03;5054034;28;20642;-74
2023/12/26 06:57:40;;;;;;;39.38;19.50;;;;;;;-142.91;100.00;56616.03;5056958;28;20661;-74
2023/12/26 07:00:09;;;;;;;33.90;18.40;;;;;;;;;;5050304;28;20254;-73
2023/12/26 07:02:35;;;;;;;32.17;19.55;;;;;;;-142.91;100.00;56616.03;5049545;28;20274;-73
2023/12/26 07:05:02;;;;;;;52.15;20.80;;;;;;;-142.91;100.00;56616.03;5049711;28;20207;-73
2023/12/26 07:07:29;;;;;;;38.17;18.50;;;;;;;-142.91;100.00;56616.03;5047987;28;20754;-74
2023/12/26 07:09:55;;;;;;;36.63;19.73;;;;;;;-142.91;100.00;56616.03;5048449;28;20234;-73
2023/12/26 07:12:22;;;;;;;30.48;18.02;;;;;;;-142.91;100.00;56616.03;5044443;28;20256;-74
2023/12/26 07:14:48;;;;;;;32.13;16.90;;;;;;;-142.91;100.00;56616.03;5051066;28;20235;-73
2023/12/26 07:17:16;;;;;;;44.45;17.98;;;;;;;-142.91;100.00;56616.03;5046257;28;20253;-74
2023/12/26 07:19:43;;;;;;;36.20;17.60;;;;;;;;;;5053969;28;20802;-73
2023/12/26 07:22:09;;;;;;;35.55;19.17;;;;;;;;;;5050686;28;20319;-73
2023/12/26 07:24:36;;;;;;;40.58;22.75;;;;;;;-142.91;100.00;56616.03;5045812;28;20689;-73
2023/12/26 07:27:03;;;;;;;31.73;17.60;;;;;;;-142.91;100.00;56616.03;5053079;28;21347;-74
2023/12/26 07:29:30;;;;;;;37.10;19.08;;;;;;;-142.91;100.00;56616.03;5040560;28;20246;-74
2023/12/26 07:31:56;;;;;;;33.63;18.50;;;;;;;-142.91;100.00;56616.03;5055796;28;20245;-72
2023/12/26 07:34:24;;;;;;;30.08;17.50;;;;;;;-142.91;100.00;56616.03;5048363;28;20195;-72
2023/12/26 07:36:51;;;;;;;30.38;17.48;;;;;;;;;;5053376;28;20304;-73
2023/12/26 07:39:19;;;;;;;30.70;17.13;;;;;;;;;;5050986;28;20316;-73
2023/12/26 07:41:45;;;;;;;35.95;17.60;;;;;;;;;;5049022;28;20226;-73
2023/12/26 07:44:12;;;;;;;35.90;19.35;;;;;;;;;;5048110;28;20458;-73
2023/12/26 07:46:38;;;;;;;41.47;22.73;;;;;;;;;;5047627;28;20199;-73
2023/12/26 07:49:06;;;;;;;35.40;19.17;;;;;;;;;;5051075;28;20756;-73
2023/12/26 07:51:34;;;;;;;36.85;19.50;;;;;;;;;;5049225;28;20758;-73
2023/12/26 07:54:00;;;;;;;47.45;26.13;;;;;;;;;;5049149;28;20223;-74
2023/12/26 07:56:27;;;;;;;46.67;24.25;;;;;;;;;;5049176;28;20195;-74
2023/12/26 07:58:54;;;;;;;56.90;31.40;;;;;;;;;;5051574;28;20231;-73
2023/12/26 08:01:21;;;;;;;51.17;25.30;;;;;;;;;;5050848;28;20233;-73
2023/12/26 08:03:48;;;;;;;39.15;23.70;;;;;;;;;;5053980;28;20321;-73
2023/12/26 08:06:14;;;;;;;39.22;22.48;;;;;;;;;;5050309;28;20199;-73
2023/12/26 08:08:42;;;;;;;36.42;20.55;;;;;;;;;;5050278;28;20597;-73
2023/12/26 08:11:08;;;;;;;43.08;23.42;;;;;;;;;;5052438;28;20222;-73
2023/12/26 08:13:35;;;;;;;38.72;23.67;;;;;;;;;;5048879;28;20230;-75
2023/12/26 08:16:03;;;;;;;49.92;26.73;;;;;;;;;;5049349;28;20253;-74
2023/12/26 08:18:29;;;;;;;59.08;33.75;;;;;;;23.25;100.00;56616.03;5047353;28;20195;-73
2023/12/26 08:21:00;;;;;;;52.08;30.83;;;;;;;-142.91;100.00;56616.03;5052449;28;20231;-74
2023/12/26 08:23:35;;;;;;;48.60;28.75;;;;;;;-142.91;100.00;56616.03;5035617;28;20209;-75
2023/12/26 08:26:06;;;;;;;60.47;32.25;;;;;;;;;;5031172;28;20205;-74
2023/12/26 08:28:32;;;;;;;56.53;33.15;;;;;;;;;;5044963;28;20249;-74
2023/12/26 08:31:00;;;;;;;63.13;33.92;;;;;;;23.26;100.00;56616.03;5046791;28;20261;-74
2023/12/26 08:33:29;;;;;;;59.78;33.15;;;;;;;;;;5051170;28;20309;-74
2023/12/26 08:35:56;;;;;;;54.17;29.92;;;;;;;;;;5050794;28;20199;-74
2023/12/26 08:38:23;;;;;;;52.08;28.27;;;;;;;;;;5048168;28;20260;-75
2023/12/26 08:40:50;;;;;;;47.17;28.90;;;;;;;;;;5046391;28;20298;-75
2023/12/26 08:43:18;;;;;;;50.83;28.08;;;;;;;;;;5053541;28;20305;-75
2023/12/26 08:45:44;;;;;;;43.00;24.25;;;;;;;;;;5048667;28;20272;-74
2023/12/26 08:48:11;;;;;;;45.88;26.70;;;;;;;;;;5049702;28;20202;-74
2023/12/26 08:50:37;;;;;;;38.80;26.27;;;;;;;;;;5052211;28;20261;-74
2023/12/26 08:53:04;;;;;;;41.28;25.85;;;;;;;;;;5056376;28;20242;-74
2023/12/26 08:55:31;;;;;;;79.45;45.85;;;;;;;;;;5056132;28;20198;-74
2023/12/26 08:57:57;;;;;;;84.72;47.88;;;;;;;;;;5057029;28;20195;-73
2023/12/26 09:00:25;;;;;;;57.33;31.65;;;;;;;;;;5048890;28;20716;-75
2023/12/26 09:02:52;;;;;;;46.22;26.85;;;;;;;-142.91;100.00;56616.03;5047766;28;20262;-76
2023/12/26 09:05:18;;;;;;;36.47;23.50;;;;;;;;;;5049693;28;20249;-75
2023/12/26 09:07:44;;;;;;;48.65;29.48;;;;;;;;;;5045476;28;20308;-75
2023/12/26 09:10:11;;;;;;;45.50;26.35;;;;;;;;;;5046623;28;20761;-75
2023/12/26 09:12:37;;;;;;;41.70;24.27;;;;;;;;;;5045214;28;20199;-75
2023/12/26 09:15:04;;;;;;;44.70;26.45;;;;;;;;;;5047553;28;20318;-75
2023/12/26 09:17:32;;;;;;;41.20;25.42;;;;;;;;;;5052239;28;20252;-75
2023/12/26 09:19:59;;;;;;;40.50;24.48;;;;;;;23.26;100.00;56616.03;5047459;28;20285;-75
2023/12/26 09:22:26;;;;;;;49.30;24.55;;;;;;;;;;5050146;28;20789;-75
2023/12/26 09:24:52;;;;;;;42.00;23.92;;;;;;;;;;5046245;28;20292;-75
2023/12/26 09:27:18;;;;;;;39.60;21.35;;;;;;;;;;5048536;28;20295;-74
2023/12/26 09:29:45;;;;;;;34.22;21.83;;;;;;;;;;5045217;28;20254;-74
2023/12/26 09:32:12;;;;;;;33.35;20.60;;;;;;;;;;5044896;28;20249;-75
2023/12/26 09:34:40;;;;;;;35.35;21.13;;;;;;;;;;5046895;28;20233;-75
2023/12/26 09:37:07;;;;;;;34.00;21.33;;;;;;;-142.91;100.00;56616.03;5044644;28;20290;-74
2023/12/26 09:39:32;;;;;;;27.92;17.98;;;;;;;23.26;100.00;56616.03;5047660;28;20704;-75
2023/12/26 09:42:00;;;;;;;31.08;17.55;;;;;;;;;;5048222;28;20306;-74
2023/12/26 09:44:27;;;;;;;29.92;18.67;;;;;;;;;;5054170;28;20271;-74
2023/12/26 09:46:53;;;;;;;29.33;17.65;;;;;;;;;;5047337;28;20214;-75
2023/12/26 09:49:20;;;;;;;27.27;18.25;;;;;;;;;;5046572;28;20203;-74
2023/12/26 09:51:52;;;;;;;35.00;17.98;;;;;;;23.26;100.00;56616.03;5045880;28;20665;-77
2023/12/26 09:54:21;;;;;;;22.08;12.90;;;;;;;-142.91;100.00;56616.03;5045671;28;20675;-74
2023/12/26 09:56:48;;;;;;;22.05;13.73;;;;;;;;;;5045234;28;20233;-75
2023/12/26 09:59:15;;;;;;;23.45;14.77;;;;;;;;;;5050325;28;20272;-75
2023/12/26 10:01:43;;;;;;;25.80;13.32;;;;;;;;;;5053687;28;20711;-74
2023/12/26 10:04:09;;;;;;;26.52;12.70;;;;;;;23.26;100.00;56616.03;5050831;28;20330;-74
2023/12/26 10:06:36;;;;;;;25.73;11.82;;;;;;;;;;5045812;28;20226;-75
2023/12/26 10:09:04;;;;;;;30.88;12.32;;;;;;;;;;5046007;28;20226;-75
2023/12/26 10:11:32;;;;;;;20.45;11.95;;;;;;;-142.91;100.00;56616.03;5030187;28;20202;-77
2023/12/26 10:13:59;;;;;;;21.73;12.52;;;;;;;23.26;100.00;56616.03;5048534;28;20265;-75
2023/12/26 10:16:26;;;;;;;17.70;12.02;;;;;;;-142.91;100.00;56616.03;5045358;28;20194;-75
2023/12/26 10:18:52;;;;;;;23.00;13.98;;;;;;;;;;5049794;28;20211;-73
2023/12/26 10:21:19;;;;;;;21.13;13.52;;;;;;;;;;5052289;28;20230;-76
2023/12/26 10:23:46;;;;;;;22.60;13.40;;;;;;;23.26;100.00;56616.03;5034757;28;20319;-75
2023/12/26 10:26:16;;;;;;;22.85;12.57;;;;;;;23.26;100.00;56616.03;5046350;28;20234;-76
2023/12/26 10:28:42;;;;;;;16.55;12.05;;;;;;;;;;5044972;28;20211;-73
2023/12/26 10:31:13;;;;;;;18.83;12.57;;;;;;;;;;5049174;28;20253;-73
2023/12/26 10:33:40;;;;;;;16.63;12.02;;;;;;;;;;5045215;28;20214;-75
2023/12/26 10:36:07;;;;;;;20.38;12.07;;;;;;;;;;5054766;28;20198;-72
2023/12/26 10:38:34;;;;;;;18.27;12.25;;;;;;;;;;5054437;28;21838;-75
2023/12/26 10:41:01;;;;;;;26.77;13.07;;;;;;;;;;5059125;28;20226;-74
2023/12/26 10:43:30;;;;;;;16.25;10.98;;;;;;;23.25;100.00;56616.03;5060073;28;20250;-75
2023/12/26 10:45:57;;;;;;;16.00;10.55;;;;;;;;;;5032318;28;20699;-75
2023/12/26 10:48:25;;;;;;;14.38;11.13;;;;;;;;;;5044767;28;20209;-72
2023/12/26 10:50:53;;;;;;;13.25;9.85;;;;;;;-142.91;100.00;56616.03;5050609;28;20238;-74
2023/12/26 10:53:23;;;;;;;15.30;9.07;;;;;;;23.25;100.00;56616.03;5043923;28;21482;-74
2023/12/26 10:55:50;;;;;;;18.48;10.60;;;;;;;;;;5052516;28;20672;-74
2023/12/26 10:58:22;;;;;;;13.23;9.68;;;;;;;;;;5055460;28;20213;-73
2023/12/26 11:00:53;;;;;;;16.35;9.52;;;;;;;;;;5055139;28;20293;-75
2023/12/26 13:52:14;;;;;;;11.32;7.13;;;;;;;;;;5047032;28;20201;-72
2023/12/26 13:55:00;;;;;;;15.10;7.55;;;;;;;;;;5040005;28;20239;-72
2023/12/26 13:57:44;;;;;;;12.73;8.23;;;;;;;;;;5045450;28;20203;-73
2023/12/26 14:00:29;;;;;;;12.27;8.05;;;;;;;;;;5045412;28;20599;-73
2023/12/26 14:03:13;;;;;;;13.05;7.20;;;;;;;;;;5044815;28;20226;-73
2023/12/26 14:05:58;;;;;;;8.00;6.07;;;;;;;;;;5042757;28;20261;-73
2023/12/26 14:08:43;;;;;;;18.38;6.53;;;;;;;;;;5051963;28;20194;-73
2023/12/26 14:11:28;;;;;;;18.52;7.78;;;;;;;;;;5047010;28;20745;-73
2023/12/26 14:14:13;;;;;;;14.10;7.47;;;;;;;;;;5042951;28;20272;-73
2023/12/26 14:16:58;;;;;;;12.35;7.70;;;;;;;;;;5038086;28;20198;-73
2023/12/26 14:19:43;;;;;;;12.77;7.40;;;;;;;;;;5043903;28;20244;-72
2023/12/26 14:22:28;;;;;;;10.23;6.93;;;;;;;;;;5044572;28;20195;-76
2023/12/26 14:25:13;;;;;;;18.27;8.23;;;;;;;;;;5044397;28;20211;-75
2023/12/26 14:28:17;;;;;;;13.27;8.23;;;;;;;-142.91;100.00;56616.03;5043453;28;20210;-75
2023/12/26 14:31:03;;;;;;;14.73;8.30;;;;;;;;;;5044803;28;20210;-73
2023/12/26 14:33:48;;;;;;;11.40;7.50;;;;;;;;;;5045419;28;20720;-73
2023/12/26 14:36:33;;;;;;;16.42;9.10;;;;;;;;;;5044617;28;20249;-73
2023/12/26 14:39:18;;;;;;;25.08;10.00;;;;;;;;;;5051447;28;20206;-73
2023/12/26 14:42:03;;;;;;;16.55;9.57;;;;;;;;;;5047551;28;20207;-74
2023/12/26 14:44:48;;;;;;;24.42;11.82;;;;;;;;;;5044864;28;20255;-75
2023/12/26 14:47:33;;;;;;;20.95;10.07;;;;;;;;;;5044151;28;20203;-74
2023/12/26 14:50:18;;;;;;;15.25;9.70;;;;;;;;;;5046818;28;20264;-73
2023/12/26 14:53:04;;;;;;;16.20;10.40;;;;;;;;;;5047613;28;20194;-77